sensor_id;sensor_type;location;lat;lon;timestamp;temperature;humidity
30037;DHT22;36325;51.512;-0.382;2023-07-13T00:01:55;15.70;99.90
30037;DHT22;36325;51.512;-0.382;2023-07-13T00:04:24;15.70;99.90
30037;DHT22;36325;51.512;-0.382;2023-07-13T00:06:52;15.70;99.90
30037;DHT22;36325;51.512;-0.382;2023-07-13T00:09:21;15.70;99.90
30037;DHT22;36325;51.512;-0.382;2023-07-13T00:11:54;15.70;99.90
30037;DHT22;36325;51.512;-0.382;2023-07-13T00:14:22;15.60;99.90
30037;DHT22;36325;51.512;-0.382;2023-07-13T00:16:50;15.60;99.90
30037;DHT22;36325;51.512;-0.382;2023-07-13T00:19:17;15.60;99.90
30037;DHT22;36325;51.512;-0.382;2023-07-13T00:21:45;15.50;99.90
30037;DHT22;36325;51.512;-0.382;2023-07-13T00:24:16;15.50;99.90
30037;DHT22;36325;51.512;-0.382;2023-07-13T00:26:49;17.50;99.90
30037;DHT22;36325;51.512;-0.382;2023-07-13T00:29:16;15.50;99.90
30037;DHT22;36325;51.512;-0.382;2023-07-13T00:31:43;15.50;99.90
30037;DHT22;36325;51.512;-0.382;2023-07-13T00:34:11;15.50;99.90
30037;DHT22;36325;51.512;-0.382;2023-07-13T00:36:39;15.40;99.90
30037;DHT22;36325;51.512;-0.382;2023-07-13T00:39:06;15.50;99.90
30037;DHT22;36325;51.512;-0.382;2023-07-13T00:41:33;15.40;99.90
30037;DHT22;36325;51.512;-0.382;2023-07-13T00:44:03;15.40;99.90
30037;DHT22;36325;51.512;-0.382;2023-07-13T00:46:33;15.40;99.90
30037;DHT22;36325;51.512;-0.382;2023-07-13T00:49:04;15.40;99.90
30037;DHT22;36325;51.512;-0.382;2023-07-13T00:51:41;15.40;99.90
30037;DHT22;36325;51.512;-0.382;2023-07-13T00:54:14;15.40;99.90
30037;DHT22;36325;51.512;-0.382;2023-07-13T00:56:43;15.40;99.90
30037;DHT22;36325;51.512;-0.382;2023-07-13T00:59:12;15.40;99.90
30037;DHT22;36325;51.512;-0.382;2023-07-13T01:01:40;15.40;99.90
30037;DHT22;36325;51.512;-0.382;2023-07-13T01:04:07;15.40;99.90
30037;DHT22;36325;51.512;-0.382;2023-07-13T01:06:36;15.40;99.90
30037;DHT22;36325;51.512;-0.382;2023-07-13T01:09:04;15.40;99.90
30037;DHT22;36325;51.512;-0.382;2023-07-13T01:11:33;15.30;99.90
30037;DHT22;36325;51.512;-0.382;2023-07-13T01:14:03;15.30;99.90
30037;DHT22;36325;51.512;-0.382;2023-07-13T01:16:34;15.30;99.90
30037;DHT22;36325;51.512;-0.382;2023-07-13T01:19:05;15.20;99.90
30037;DHT22;36325;51.512;-0.382;2023-07-13T01:21:33;15.20;99.90
30037;DHT22;36325;51.512;-0.382;2023-07-13T01:24:01;15.20;99.90
30037;DHT22;36325;51.512;-0.382;2023-07-13T01:26:29;15.10;99.90
30037;DHT22;36325;51.512;-0.382;2023-07-13T01:28:57;15.10;99.90
30037;DHT22;36325;51.512;-0.382;2023-07-13T01:31:24;15.10;99.90
30037;DHT22;36325;51.512;-0.382;2023-07-13T01:33:53;15.10;99.90
30037;DHT22;36325;51.512;-0.382;2023-07-13T01:36:20;15.00;99.90
30037;DHT22;36325;51.512;-0.382;2023-07-13T01:38:48;15.00;99.90
30037;DHT22;36325;51.512;-0.382;2023-07-13T01:41:16;15.00;99.90
30037;DHT22;36325;51.512;-0.382;2023-07-13T01:43:45;15.00;99.90
30037;DHT22;36325;51.512;-0.382;2023-07-13T01:46:12;15.00;99.90
30037;DHT22;36325;51.512;-0.382;2023-07-13T01:48:49;14.90;99.90
30037;DHT22;36325;51.512;-0.382;2023-07-13T01:51:17;14.90;99.90
30037;DHT22;36325;51.512;-0.382;2023-07-13T01:53:45;14.90;99.90
30037;DHT22;36325;51.512;-0.382;2023-07-13T01:56:12;14.90;99.90
30037;DHT22;36325;51.512;-0.382;2023-07-13T01:58:40;14.80;99.90
30037;DHT22;36325;51.512;-0.382;2023-07-13T02:01:07;14.80;99.90
30037;DHT22;36325;51.512;-0.382;2023-07-13T02:03:35;14.80;99.90
30037;DHT22;36325;51.512;-0.382;2023-07-13T02:06:02;14.80;99.90
30037;DHT22;36325;51.512;-0.382;2023-07-13T02:08:32;14.80;99.90
30037;DHT22;36325;51.512;-0.382;2023-07-13T02:11:00;14.80;99.90
30037;DHT22;36325;51.512;-0.382;2023-07-13T02:13:29;14.80;99.90
30037;DHT22;36325;51.512;-0.382;2023-07-13T02:15:56;14.70;99.90
30037;DHT22;36325;51.512;-0.382;2023-07-13T02:18:23;14.70;99.90
30037;DHT22;36325;51.512;-0.382;2023-07-13T02:20:51;14.70;99.90
30037;DHT22;36325;51.512;-0.382;2023-07-13T02:23:18;14.70;99.90
30037;DHT22;36325;51.512;-0.382;2023-07-13T02:25:46;14.60;99.90
30037;DHT22;36325;51.512;-0.382;2023-07-13T02:28:15;14.60;99.90
30037;DHT22;36325;51.512;-0.382;2023-07-13T02:30:42;14.60;99.90
30037;DHT22;36325;51.512;-0.382;2023-07-13T02:33:09;14.60;99.90
30037;DHT22;36325;51.512;-0.382;2023-07-13T02:35:37;14.60;99.90
30037;DHT22;36325;51.512;-0.382;2023-07-13T02:38:04;14.60;99.90
30037;DHT22;36325;51.512;-0.382;2023-07-13T02:43:00;14.50;99.90
30037;DHT22;36325;51.512;-0.382;2023-07-13T02:45:30;16.50;99.90
30037;DHT22;36325;51.512;-0.382;2023-07-13T02:47:58;14.50;99.90
30037;DHT22;36325;51.512;-0.382;2023-07-13T02:50:25;14.50;99.90
30037;DHT22;36325;51.512;-0.382;2023-07-13T02:52:52;14.50;99.90
30037;DHT22;36325;51.512;-0.382;2023-07-13T02:55:19;14.50;99.90
30037;DHT22;36325;51.512;-0.382;2023-07-13T02:57:47;14.40;99.90
30037;DHT22;36325;51.512;-0.382;2023-07-13T03:02:43;14.40;99.90
30037;DHT22;36325;51.512;-0.382;2023-07-13T03:05:11;14.40;99.90
30037;DHT22;36325;51.512;-0.382;2023-07-13T03:07:41;14.40;99.90
30037;DHT22;36325;51.512;-0.382;2023-07-13T03:10:09;14.40;99.90
30037;DHT22;36325;51.512;-0.382;2023-07-13T03:12:43;14.30;99.90
30037;DHT22;36325;51.512;-0.382;2023-07-13T03:15:19;14.40;99.90
30037;DHT22;36325;51.512;-0.382;2023-07-13T03:17:47;14.30;99.90
30037;DHT22;36325;51.512;-0.382;2023-07-13T03:20:15;13.80;99.90
30037;DHT22;36325;51.512;-0.382;2023-07-13T03:22:43;14.30;99.90
30037;DHT22;36325;51.512;-0.382;2023-07-13T03:25:11;14.20;99.90
30037;DHT22;36325;51.512;-0.382;2023-07-13T03:27:39;14.20;99.90
30037;DHT22;36325;51.512;-0.382;2023-07-13T03:30:08;14.20;99.90
30037;DHT22;36325;51.512;-0.382;2023-07-13T03:32:36;14.10;99.90
30037;DHT22;36325;51.512;-0.382;2023-07-13T03:35:04;14.10;99.90
30037;DHT22;36325;51.512;-0.382;2023-07-13T03:37:31;14.10;99.90
30037;DHT22;36325;51.512;-0.382;2023-07-13T03:39:59;14.10;99.90
30037;DHT22;36325;51.512;-0.382;2023-07-13T03:42:29;14.10;99.90
30037;DHT22;36325;51.512;-0.382;2023-07-13T03:44:56;14.10;99.90
30037;DHT22;36325;51.512;-0.382;2023-07-13T03:47:23;14.00;99.90
30037;DHT22;36325;51.512;-0.382;2023-07-13T03:49:51;14.00;99.90
30037;DHT22;36325;51.512;-0.382;2023-07-13T03:52:18;14.00;99.90
30037;DHT22;36325;51.512;-0.382;2023-07-13T03:54:45;14.00;99.90
30037;DHT22;36325;51.512;-0.382;2023-07-13T03:57:12;13.90;99.90
30037;DHT22;36325;51.512;-0.382;2023-07-13T03:59:39;14.00;99.90
30037;DHT22;36325;51.512;-0.382;2023-07-13T04:02:08;13.90;99.90
30037;DHT22;36325;51.512;-0.382;2023-07-13T04:04:35;13.90;99.90
30037;DHT22;36325;51.512;-0.382;2023-07-13T04:07:02;13.90;99.90
30037;DHT22;36325;51.512;-0.382;2023-07-13T04:09:30;13.90;99.90
30037;DHT22;36325;51.512;-0.382;2023-07-13T04:14:27;14.00;99.90
30037;DHT22;36325;51.512;-0.382;2023-07-13T04:16:54;13.90;99.90
30037;DHT22;36325;51.512;-0.382;2023-07-13T04:19:24;13.90;99.90
30037;DHT22;36325;51.512;-0.382;2023-07-13T04:21:51;13.90;99.90
30037;DHT22;36325;51.512;-0.382;2023-07-13T04:24:18;13.90;99.90
30037;DHT22;36325;51.512;-0.382;2023-07-13T04:26:46;13.90;99.90
30037;DHT22;36325;51.512;-0.382;2023-07-13T04:29:13;13.90;99.90
30037;DHT22;36325;51.512;-0.382;2023-07-13T04:31:40;14.00;99.90
30037;DHT22;36325;51.512;-0.382;2023-07-13T04:34:07;14.00;99.90
30037;DHT22;36325;51.512;-0.382;2023-07-13T04:36:34;14.00;99.90
30037;DHT22;36325;51.512;-0.382;2023-07-13T04:39:04;14.00;99.90
30037;DHT22;36325;51.512;-0.382;2023-07-13T04:41:31;14.00;99.90
30037;DHT22;36325;51.512;-0.382;2023-07-13T04:43:59;14.00;99.90
30037;DHT22;36325;51.512;-0.382;2023-07-13T04:46:26;14.00;99.90
30037;DHT22;36325;51.512;-0.382;2023-07-13T04:48:53;14.10;99.90
30037;DHT22;36325;51.512;-0.382;2023-07-13T04:51:20;14.10;99.90
30037;DHT22;36325;51.512;-0.382;2023-07-13T04:53:48;14.10;99.90
30037;DHT22;36325;51.512;-0.382;2023-07-13T04:56:16;14.10;99.90
30037;DHT22;36325;51.512;-0.382;2023-07-13T04:58:43;13.30;99.90
30037;DHT22;36325;51.512;-0.382;2023-07-13T05:01:11;14.20;99.90
30037;DHT22;36325;51.512;-0.382;2023-07-13T05:03:38;14.20;99.90
30037;DHT22;36325;51.512;-0.382;2023-07-13T05:06:07;14.20;99.90
30037;DHT22;36325;51.512;-0.382;2023-07-13T05:08:37;14.20;99.90
30037;DHT22;36325;51.512;-0.382;2023-07-13T05:11:05;14.20;99.90
30037;DHT22;36325;51.512;-0.382;2023-07-13T05:13:34;14.30;99.90
30037;DHT22;36325;51.512;-0.382;2023-07-13T05:16:06;14.30;99.90
30037;DHT22;36325;51.512;-0.382;2023-07-13T05:18:35;14.30;99.90
30037;DHT22;36325;51.512;-0.382;2023-07-13T05:21:05;14.30;99.90
30037;DHT22;36325;51.512;-0.382;2023-07-13T05:23:33;14.40;99.90
30037;DHT22;36325;51.512;-0.382;2023-07-13T05:26:01;14.50;99.90
30037;DHT22;36325;51.512;-0.382;2023-07-13T05:28:31;14.50;99.90
30037;DHT22;36325;51.512;-0.382;2023-07-13T05:30:58;14.50;99.90
30037;DHT22;36325;51.512;-0.382;2023-07-13T05:33:27;14.50;99.90
30037;DHT22;36325;51.512;-0.382;2023-07-13T05:35:55;14.60;99.90
30037;DHT22;36325;51.512;-0.382;2023-07-13T05:40:50;14.70;99.90
30037;DHT22;36325;51.512;-0.382;2023-07-13T05:43:18;14.80;99.90
30037;DHT22;36325;51.512;-0.382;2023-07-13T05:48:12;14.90;99.90
30037;DHT22;36325;51.512;-0.382;2023-07-13T05:50:40;14.90;99.90
30037;DHT22;36325;51.512;-0.382;2023-07-13T05:53:07;15.00;99.90
30037;DHT22;36325;51.512;-0.382;2023-07-13T05:55:35;15.00;99.90
30037;DHT22;36325;51.512;-0.382;2023-07-13T05:58:02;15.00;99.90
30037;DHT22;36325;51.512;-0.382;2023-07-13T06:00:29;15.10;99.90
30037;DHT22;36325;51.512;-0.382;2023-07-13T06:02:56;15.10;99.90
30037;DHT22;36325;51.512;-0.382;2023-07-13T06:05:25;15.30;99.90
30037;DHT22;36325;51.512;-0.382;2023-07-13T06:07:54;15.30;99.90
30037;DHT22;36325;51.512;-0.382;2023-07-13T06:10:21;15.40;99.90
30037;DHT22;36325;51.512;-0.382;2023-07-13T06:12:49;15.50;99.90
30037;DHT22;36325;51.512;-0.382;2023-07-13T06:15:17;15.60;99.90
30037;DHT22;36325;51.512;-0.382;2023-07-13T06:17:45;15.60;99.90
30037;DHT22;36325;51.512;-0.382;2023-07-13T06:20:12;15.80;99.90
30037;DHT22;36325;51.512;-0.382;2023-07-13T06:22:39;15.80;99.90
30037;DHT22;36325;51.512;-0.382;2023-07-13T06:25:07;16.00;99.90
30037;DHT22;36325;51.512;-0.382;2023-07-13T06:27:34;16.00;99.90
30037;DHT22;36325;51.512;-0.382;2023-07-13T06:30:02;16.00;99.90
30037;DHT22;36325;51.512;-0.382;2023-07-13T06:32:29;16.20;99.90
30037;DHT22;36325;51.512;-0.382;2023-07-13T06:34:57;16.30;99.90
30037;DHT22;36325;51.512;-0.382;2023-07-13T06:37:24;16.50;99.90
30037;DHT22;36325;51.512;-0.382;2023-07-13T06:39:52;16.60;99.90
30037;DHT22;36325;51.512;-0.382;2023-07-13T06:42:19;16.30;99.90
30037;DHT22;36325;51.512;-0.382;2023-07-13T06:44:46;16.90;99.90
30037;DHT22;36325;51.512;-0.382;2023-07-13T06:47:13;16.90;99.90
30037;DHT22;36325;51.512;-0.382;2023-07-13T06:49:40;17.10;99.90
30037;DHT22;36325;51.512;-0.382;2023-07-13T06:52:09;17.20;99.90
30037;DHT22;36325;51.512;-0.382;2023-07-13T06:54:36;17.40;99.90
30037;DHT22;36325;51.512;-0.382;2023-07-13T06:57:04;17.50;99.90
30037;DHT22;36325;51.512;-0.382;2023-07-13T06:59:31;17.50;99.90
30037;DHT22;36325;51.512;-0.382;2023-07-13T07:01:58;17.50;99.90
30037;DHT22;36325;51.512;-0.382;2023-07-13T07:04:25;17.60;99.90
30037;DHT22;36325;51.512;-0.382;2023-07-13T07:06:53;17.60;99.90
30037;DHT22;36325;51.512;-0.382;2023-07-13T07:09:23;17.60;99.90
30037;DHT22;36325;51.512;-0.382;2023-07-13T07:11:50;17.60;99.90
30037;DHT22;36325;51.512;-0.382;2023-07-13T07:14:29;17.60;99.90
30037;DHT22;36325;51.512;-0.382;2023-07-13T07:16:56;17.60;99.90
30037;DHT22;36325;51.512;-0.382;2023-07-13T07:19:25;17.60;99.90
30037;DHT22;36325;51.512;-0.382;2023-07-13T07:21:53;17.70;99.90
30037;DHT22;36325;51.512;-0.382;2023-07-13T07:24:20;17.90;99.90
30037;DHT22;36325;51.512;-0.382;2023-07-13T07:26:47;18.10;99.90
30037;DHT22;36325;51.512;-0.382;2023-07-13T07:29:17;18.30;99.90
30037;DHT22;36325;51.512;-0.382;2023-07-13T07:31:47;18.30;99.90
30037;DHT22;36325;51.512;-0.382;2023-07-13T07:34:27;18.40;99.90
30037;DHT22;36325;51.512;-0.382;2023-07-13T07:36:59;18.30;99.90
30037;DHT22;36325;51.512;-0.382;2023-07-13T07:39:30;18.30;99.90
30037;DHT22;36325;51.512;-0.382;2023-07-13T07:41:57;18.40;99.90
30037;DHT22;36325;51.512;-0.382;2023-07-13T07:44:25;18.50;99.90
30037;DHT22;36325;51.512;-0.382;2023-07-13T07:46:54;18.50;99.90
30037;DHT22;36325;51.512;-0.382;2023-07-13T07:49:21;18.60;99.90
30037;DHT22;36325;51.512;-0.382;2023-07-13T07:51:48;18.60;99.90
30037;DHT22;36325;51.512;-0.382;2023-07-13T07:54:16;18.60;99.90
30037;DHT22;36325;51.512;-0.382;2023-07-13T07:56:49;18.60;99.90
30037;DHT22;36325;51.512;-0.382;2023-07-13T07:59:19;18.60;99.90
30037;DHT22;36325;51.512;-0.382;2023-07-13T08:04:21;18.80;99.90
30037;DHT22;36325;51.512;-0.382;2023-07-13T08:06:51;18.80;99.90
30037;DHT22;36325;51.512;-0.382;2023-07-13T08:09:18;19.00;99.90
30037;DHT22;36325;51.512;-0.382;2023-07-13T08:11:45;19.20;99.90
30037;DHT22;36325;51.512;-0.382;2023-07-13T08:14:15;19.30;99.90
30037;DHT22;36325;51.512;-0.382;2023-07-13T08:16:43;19.40;99.90
30037;DHT22;36325;51.512;-0.382;2023-07-13T08:19:11;19.40;99.90
30037;DHT22;36325;51.512;-0.382;2023-07-13T08:21:39;19.40;99.90
30037;DHT22;36325;51.512;-0.382;2023-07-13T08:24:07;19.40;99.90
30037;DHT22;36325;51.512;-0.382;2023-07-13T08:26:34;19.60;99.90
30037;DHT22;36325;51.512;-0.382;2023-07-13T08:29:02;19.60;99.90
30037;DHT22;36325;51.512;-0.382;2023-07-13T08:31:30;19.80;99.90
30037;DHT22;36325;51.512;-0.382;2023-07-13T08:33:57;19.80;99.90
30037;DHT22;36325;51.512;-0.382;2023-07-13T08:36:26;20.00;99.90
30037;DHT22;36325;51.512;-0.382;2023-07-13T08:38:53;20.00;99.90
30037;DHT22;36325;51.512;-0.382;2023-07-13T08:41:21;20.70;99.90
30037;DHT22;36325;51.512;-0.382;2023-07-13T08:43:52;20.00;99.90
30037;DHT22;36325;51.512;-0.382;2023-07-13T08:46:24;20.00;99.90
30037;DHT22;36325;51.512;-0.382;2023-07-13T08:49:04;20.00;99.90
30037;DHT22;36325;51.512;-0.382;2023-07-13T08:51:43;20.00;99.90
30037;DHT22;36325;51.512;-0.382;2023-07-13T08:54:28;19.90;99.90
30037;DHT22;36325;51.512;-0.382;2023-07-13T08:56:59;19.80;99.90
30037;DHT22;36325;51.512;-0.382;2023-07-13T08:59:30;19.70;99.90
30037;DHT22;36325;51.512;-0.382;2023-07-13T09:04:41;19.70;99.90
30037;DHT22;36325;51.512;-0.382;2023-07-13T09:10:44;19.90;99.90
30037;DHT22;36325;51.512;-0.382;2023-07-13T09:15:47;20.00;99.90
30037;DHT22;36325;51.512;-0.382;2023-07-13T09:18:24;19.90;99.90
30037;DHT22;36325;51.512;-0.382;2023-07-13T09:21:13;20.00;99.90
30037;DHT22;36325;51.512;-0.382;2023-07-13T09:23:41;19.90;99.90
30037;DHT22;36325;51.512;-0.382;2023-07-13T09:28:43;20.10;99.90
30037;DHT22;36325;51.512;-0.382;2023-07-13T09:31:20;20.30;99.90
30037;DHT22;36325;51.512;-0.382;2023-07-13T09:33:50;20.50;99.90
30037;DHT22;36325;51.512;-0.382;2023-07-13T09:38:52;21.10;99.90
30037;DHT22;36325;51.512;-0.382;2023-07-13T09:41:39;21.00;99.90
30037;DHT22;36325;51.512;-0.382;2023-07-13T09:44:16;21.40;99.90
30037;DHT22;36325;51.512;-0.382;2023-07-13T09:46:51;21.40;99.90
30037;DHT22;36325;51.512;-0.382;2023-07-13T09:49:27;21.60;99.90
30037;DHT22;36325;51.512;-0.382;2023-07-13T09:52:06;21.70;99.90
30037;DHT22;36325;51.512;-0.382;2023-07-13T09:54:35;21.70;99.90
30037;DHT22;36325;51.512;-0.382;2023-07-13T09:57:11;21.60;99.90
30037;DHT22;36325;51.512;-0.382;2023-07-13T09:59:48;21.50;99.90
30037;DHT22;36325;51.512;-0.382;2023-07-13T10:02:33;21.40;99.90
30037;DHT22;36325;51.512;-0.382;2023-07-13T10:05:05;21.20;99.90
30037;DHT22;36325;51.512;-0.382;2023-07-13T10:07:38;21.00;99.90
30037;DHT22;36325;51.512;-0.382;2023-07-13T10:10:17;20.90;99.90
30037;DHT22;36325;51.512;-0.382;2023-07-13T10:12:46;20.80;99.90
30037;DHT22;36325;51.512;-0.382;2023-07-13T10:15:19;20.70;99.90
30037;DHT22;36325;51.512;-0.382;2023-07-13T10:17:51;20.70;99.90
30037;DHT22;36325;51.512;-0.382;2023-07-13T10:20:20;20.70;99.90
30037;DHT22;36325;51.512;-0.382;2023-07-13T10:25:24;20.70;99.90
30037;DHT22;36325;51.512;-0.382;2023-07-13T10:27:54;20.80;99.90
30037;DHT22;36325;51.512;-0.382;2023-07-13T10:30:35;20.90;99.90
30037;DHT22;36325;51.512;-0.382;2023-07-13T10:33:13;21.90;99.90
30037;DHT22;36325;51.512;-0.382;2023-07-13T10:35:43;22.00;99.90
30037;DHT22;36325;51.512;-0.382;2023-07-13T10:38:18;22.30;99.90
30037;DHT22;36325;51.512;-0.382;2023-07-13T10:43:32;22.90;99.90
30037;DHT22;36325;51.512;-0.382;2023-07-13T10:46:00;23.00;99.90
30037;DHT22;36325;51.512;-0.382;2023-07-13T10:48:29;23.00;99.90
30037;DHT22;36325;51.512;-0.382;2023-07-13T10:50:59;22.50;99.90
30037;DHT22;36325;51.512;-0.382;2023-07-13T10:58:31;21.80;99.90
30037;DHT22;36325;51.512;-0.382;2023-07-13T11:01:11;21.70;99.90
30037;DHT22;36325;51.512;-0.382;2023-07-13T11:04:02;21.80;99.90
30037;DHT22;36325;51.512;-0.382;2023-07-13T11:06:37;22.00;99.90
30037;DHT22;36325;51.512;-0.382;2023-07-13T11:09:36;22.70;99.90
30037;DHT22;36325;51.512;-0.382;2023-07-13T11:20:18;26.00;99.90
30037;DHT22;36325;51.512;-0.382;2023-07-13T11:23:07;26.60;99.90
30037;DHT22;36325;51.512;-0.382;2023-07-13T11:25:36;26.80;99.90
30037;DHT22;36325;51.512;-0.382;2023-07-13T11:33:17;26.90;99.90
30037;DHT22;36325;51.512;-0.382;2023-07-13T11:38:45;25.40;99.90
30037;DHT22;36325;51.512;-0.382;2023-07-13T11:41:31;25.40;99.90
30037;DHT22;36325;51.512;-0.382;2023-07-13T11:44:13;24.80;99.90
30037;DHT22;36325;51.512;-0.382;2023-07-13T11:46:46;24.20;99.90
30037;DHT22;36325;51.512;-0.382;2023-07-13T11:49:19;23.80;99.90
30037;DHT22;36325;51.512;-0.382;2023-07-13T11:51:51;23.60;99.90
30037;DHT22;36325;51.512;-0.382;2023-07-13T11:54:34;23.60;99.90
30037;DHT22;36325;51.512;-0.382;2023-07-13T11:57:23;23.50;99.90
30037;DHT22;36325;51.512;-0.382;2023-07-13T11:59:52;23.20;99.90
30037;DHT22;36325;51.512;-0.382;2023-07-13T12:02:33;23.10;99.90
30037;DHT22;36325;51.512;-0.382;2023-07-13T12:05:02;23.80;99.90
30037;DHT22;36325;51.512;-0.382;2023-07-13T12:07:32;23.90;99.90
30037;DHT22;36325;51.512;-0.382;2023-07-13T12:10:24;26.00;99.90
30037;DHT22;36325;51.512;-0.382;2023-07-13T12:12:55;26.20;99.90
30037;DHT22;36325;51.512;-0.382;2023-07-13T12:15:26;27.10;99.90
30037;DHT22;36325;51.512;-0.382;2023-07-13T12:17:56;27.80;99.90
30037;DHT22;36325;51.512;-0.382;2023-07-13T12:20:29;27.60;99.90
30037;DHT22;36325;51.512;-0.382;2023-07-13T12:23:00;27.60;99.90
30037;DHT22;36325;51.512;-0.382;2023-07-13T12:25:32;27.10;99.90
30037;DHT22;36325;51.512;-0.382;2023-07-13T12:27:59;27.80;99.90
30037;DHT22;36325;51.512;-0.382;2023-07-13T12:30:49;28.50;99.90
30037;DHT22;36325;51.512;-0.382;2023-07-13T12:33:16;28.50;99.90
30037;DHT22;36325;51.512;-0.382;2023-07-13T12:35:49;27.90;99.90
30037;DHT22;36325;51.512;-0.382;2023-07-13T12:38:17;27.60;99.90
30037;DHT22;36325;51.512;-0.382;2023-07-13T12:40:44;27.80;99.90
30037;DHT22;36325;51.512;-0.382;2023-07-13T12:43:13;28.30;99.90
30037;DHT22;36325;51.512;-0.382;2023-07-13T12:48:22;27.40;99.90
30037;DHT22;36325;51.512;-0.382;2023-07-13T12:51:02;26.60;99.90
30037;DHT22;36325;51.512;-0.382;2023-07-13T12:53:30;26.40;99.90
30037;DHT22;36325;51.512;-0.382;2023-07-13T12:56:02;26.20;99.90
30037;DHT22;36325;51.512;-0.382;2023-07-13T12:58:39;25.80;99.90
30037;DHT22;36325;51.512;-0.382;2023-07-13T13:01:13;25.80;99.90
30037;DHT22;36325;51.512;-0.382;2023-07-13T13:03:46;25.30;99.90
30037;DHT22;36325;51.512;-0.382;2023-07-13T13:08:51;26.20;99.90
30037;DHT22;36325;51.512;-0.382;2023-07-13T13:11:20;26.80;99.90
30037;DHT22;36325;51.512;-0.382;2023-07-13T13:13:47;26.60;99.90
30037;DHT22;36325;51.512;-0.382;2023-07-13T13:18:50;25.90;99.90
30037;DHT22;36325;51.512;-0.382;2023-07-13T13:21:18;24.90;99.90
30037;DHT22;36325;51.512;-0.382;2023-07-13T13:23:46;24.90;99.90
30037;DHT22;36325;51.512;-0.382;2023-07-13T13:26:14;24.30;99.90
30037;DHT22;36325;51.512;-0.382;2023-07-13T13:28:43;23.90;99.90
30037;DHT22;36325;51.512;-0.382;2023-07-13T13:31:12;23.70;99.90
30037;DHT22;36325;51.512;-0.382;2023-07-13T13:33:41;23.30;99.90
30037;DHT22;36325;51.512;-0.382;2023-07-13T13:36:19;23.30;99.90
30037;DHT22;36325;51.512;-0.382;2023-07-13T13:38:48;23.10;99.90
30037;DHT22;36325;51.512;-0.382;2023-07-13T13:41:16;22.80;99.90
30037;DHT22;36325;51.512;-0.382;2023-07-13T13:43:44;22.60;99.90
30037;DHT22;36325;51.512;-0.382;2023-07-13T13:46:22;22.40;99.90
30037;DHT22;36325;51.512;-0.382;2023-07-13T13:48:52;22.20;99.90
30037;DHT22;36325;51.512;-0.382;2023-07-13T13:51:21;22.00;99.90
30037;DHT22;36325;51.512;-0.382;2023-07-13T13:53:49;21.90;99.90
30037;DHT22;36325;51.512;-0.382;2023-07-13T13:56:18;21.70;99.90
30037;DHT22;36325;51.512;-0.382;2023-07-13T13:58:46;21.70;99.90
30037;DHT22;36325;51.512;-0.382;2023-07-13T14:01:21;22.70;99.90
30037;DHT22;36325;51.512;-0.382;2023-07-13T14:03:50;23.30;99.90
30037;DHT22;36325;51.512;-0.382;2023-07-13T14:06:22;23.30;99.90
30037;DHT22;36325;51.512;-0.382;2023-07-13T14:08:49;23.30;99.90
30037;DHT22;36325;51.512;-0.382;2023-07-13T14:11:19;24.80;99.90
30037;DHT22;36325;51.512;-0.382;2023-07-13T14:14:05;22.70;99.90
30037;DHT22;36325;51.512;-0.382;2023-07-13T14:16:33;22.40;99.90
30037;DHT22;36325;51.512;-0.382;2023-07-13T14:19:00;22.40;99.90
30037;DHT22;36325;51.512;-0.382;2023-07-13T14:21:29;22.40;99.90
30037;DHT22;36325;51.512;-0.382;2023-07-13T14:23:57;22.40;99.90
30037;DHT22;36325;51.512;-0.382;2023-07-13T14:26:26;22.50;99.90
30037;DHT22;36325;51.512;-0.382;2023-07-13T14:28:56;23.10;99.90
30037;DHT22;36325;51.512;-0.382;2023-07-13T14:31:25;23.10;99.90
30037;DHT22;36325;51.512;-0.382;2023-07-13T14:33:56;24.10;99.90
30037;DHT22;36325;51.512;-0.382;2023-07-13T14:36:30;25.00;99.90
30037;DHT22;36325;51.512;-0.382;2023-07-13T14:38:58;25.00;99.90
30037;DHT22;36325;51.512;-0.382;2023-07-13T14:41:26;26.40;99.90
30037;DHT22;36325;51.512;-0.382;2023-07-13T14:43:53;27.90;99.90
30037;DHT22;36325;51.512;-0.382;2023-07-13T14:46:32;28.10;99.90
30037;DHT22;36325;51.512;-0.382;2023-07-13T14:51:54;27.40;99.90
30037;DHT22;36325;51.512;-0.382;2023-07-13T14:54:21;27.10;99.90
30037;DHT22;36325;51.512;-0.382;2023-07-13T14:56:49;26.50;99.90
30037;DHT22;36325;51.512;-0.382;2023-07-13T14:59:17;26.20;99.90
30037;DHT22;36325;51.512;-0.382;2023-07-13T15:01:48;24.60;99.90
30037;DHT22;36325;51.512;-0.382;2023-07-13T15:04:17;25.40;99.90
30037;DHT22;36325;51.512;-0.382;2023-07-13T15:07:00;25.10;99.90
30037;DHT22;36325;51.512;-0.382;2023-07-13T15:09:28;24.40;99.90
30037;DHT22;36325;51.512;-0.382;2023-07-13T15:11:57;24.80;99.90
30037;DHT22;36325;51.512;-0.382;2023-07-13T15:14:25;23.90;99.90
30037;DHT22;36325;51.512;-0.382;2023-07-13T15:16:55;23.90;99.90
30037;DHT22;36325;51.512;-0.382;2023-07-13T15:19:23;23.50;99.90
30037;DHT22;36325;51.512;-0.382;2023-07-13T15:21:51;23.10;99.90
30037;DHT22;36325;51.512;-0.382;2023-07-13T15:24:19;22.90;99.90
30037;DHT22;36325;51.512;-0.382;2023-07-13T15:26:48;22.50;99.90
30037;DHT22;36325;51.512;-0.382;2023-07-13T15:29:16;22.50;99.90
30037;DHT22;36325;51.512;-0.382;2023-07-13T15:31:44;22.40;99.90
30037;DHT22;36325;51.512;-0.382;2023-07-13T15:34:15;22.20;99.90
30037;DHT22;36325;51.512;-0.382;2023-07-13T15:36:43;22.10;99.90
30037;DHT22;36325;51.512;-0.382;2023-07-13T15:39:17;21.90;99.90
30037;DHT22;36325;51.512;-0.382;2023-07-13T15:41:45;21.80;99.90
30037;DHT22;36325;51.512;-0.382;2023-07-13T15:46:47;21.30;99.90
30037;DHT22;36325;51.512;-0.382;2023-07-13T15:49:15;21.00;99.90
30037;DHT22;36325;51.512;-0.382;2023-07-13T15:51:42;20.70;99.90
30037;DHT22;36325;51.512;-0.382;2023-07-13T15:54:13;20.40;99.90
30037;DHT22;36325;51.512;-0.382;2023-07-13T15:56:41;20.10;99.90
30037;DHT22;36325;51.512;-0.382;2023-07-13T15:59:11;20.10;99.90
30037;DHT22;36325;51.512;-0.382;2023-07-13T16:01:41;20.30;99.90
30037;DHT22;36325;51.512;-0.382;2023-07-13T16:04:09;20.60;99.90
30037;DHT22;36325;51.512;-0.382;2023-07-13T16:06:41;20.90;99.90
30037;DHT22;36325;51.512;-0.382;2023-07-13T16:09:18;21.20;99.90
30037;DHT22;36325;51.512;-0.382;2023-07-13T16:11:46;21.60;99.90
30037;DHT22;36325;51.512;-0.382;2023-07-13T16:14:14;21.70;99.90
30037;DHT22;36325;51.512;-0.382;2023-07-13T16:16:42;21.70;99.90
30037;DHT22;36325;51.512;-0.382;2023-07-13T16:19:10;21.70;99.90
30037;DHT22;36325;51.512;-0.382;2023-07-13T16:21:44;21.80;99.90
30037;DHT22;36325;51.512;-0.382;2023-07-13T16:24:21;22.50;99.90
30037;DHT22;36325;51.512;-0.382;2023-07-13T16:26:49;23.40;99.90
30037;DHT22;36325;51.512;-0.382;2023-07-13T16:29:22;23.50;99.90
30037;DHT22;36325;51.512;-0.382;2023-07-13T16:32:03;22.70;99.90
30037;DHT22;36325;51.512;-0.382;2023-07-13T16:34:32;22.60;99.90
30037;DHT22;36325;51.512;-0.382;2023-07-13T16:37:22;22.00;99.90
30037;DHT22;36325;51.512;-0.382;2023-07-13T16:39:56;22.00;99.90
30037;DHT22;36325;51.512;-0.382;2023-07-13T16:42:25;21.80;99.90